Time;durP1;ratioP1;P1;durP2;ratioP2;P2;SDS_P1;SDS_P2;PMS_P1;PMS_P2;Temp;Humidity;BMP_temperature;BMP_pressure;BME280_temperature;BME280_humidity;BME280_pressure;Samples;Min_cycle;Max_cycle;Signal;HPM_P1;HPM_P2
2021/05/11 11:30:46;;;;;;;6.78;3.60;;;35.50;42.90;;;;;;5896733;23;20017;-86
2021/05/11 11:33:20;;;;;;;8.48;4.32;;;34.80;43.00;;;;;;6072171;23;20018;-89
2021/05/11 11:35:48;;;;;;;7.00;4.13;;;34.40;43.60;;;;;;6091195;23;20014;-86
2021/05/11 11:38:27;;;;;;;8.10;3.65;;;33.20;45.00;;;;;;6039278;23;20035;-85
2021/05/11 11:41:01;;;;;;;6.20;3.47;;;32.70;46.00;;;;;;6063351;23;20229;-85
2021/05/11 11:47:09;;;;;;;11.18;3.58;;;33.30;45.70;;;;;;6090382;23;20006;-85
2021/05/11 11:49:41;;;;;;;4.70;2.60;;;34.40;43.90;;;;;;6066600;23;20014;-86
2021/05/11 11:52:13;;;;;;;9.68;3.17;;;35.10;44.00;;;;;;6061333;23;20017;-87
2021/05/11 11:54:45;;;;;;;6.57;3.20;;;36.30;42.20;;;;;;6069437;23;20010;-87
2021/05/11 12:00:15;;;;;;;6.47;3.33;;;37.90;40.00;;;;;;6061384;23;20038;-89
2021/05/11 12:03:00;;;;;;;6.50;3.95;;;37.50;39.90;;;;;;6064445;23;20244;-88
2021/05/11 12:05:30;;;;;;;12.07;4.05;;;36.00;41.00;;;;;;6062832;23;20017;-88
2021/05/11 12:08:04;;;;;;;9.77;3.63;;;35.10;42.30;;;;;;6086832;23;20014;-85
2021/05/11 12:10:38;;;;;;;8.80;3.13;;;35.00;42.30;;;;;;6087206;23;20014;-87
2021/05/11 12:13:10;;;;;;;10.18;2.33;;;35.90;42.60;;;;;;6085105;23;20050;-88
2021/05/11 12:15:40;;;;;;;5.13;2.72;;;36.70;41.20;;;;;;6087092;23;20014;-87
2021/05/11 12:18:15;;;;;;;5.65;3.05;;;37.00;40.00;;;;;;6061383;23;20350;-87
2021/05/11 12:20:44;;;;;;;7.47;3.97;;;36.00;41.10;;;;;;6083703;23;20042;-85
2021/05/11 12:23:14;;;;;;;12.18;3.70;;;34.80;42.10;;;;;;6084342;23;20050;-88
2021/05/11 12:25:44;;;;;;;6.95;3.13;;;34.10;43.50;;;;;;6062485;23;20025;-87
2021/05/11 12:28:28;;;;;;;9.25;4.15;;;34.00;43.30;;;;;;6083676;23;20049;-88
2021/05/11 12:30:57;;;;;;;10.35;3.60;;;34.20;43.20;;;;;;6084078;23;20066;-87
2021/05/11 12:33:38;;;;;;;8.50;4.20;;;34.40;43.20;;;;;;6105083;23;20039;-88
2021/05/11 12:36:16;;;;;;;6.85;2.80;;;35.20;42.40;;;;;;6055994;23;20042;-88
2021/05/11 12:38:44;;;;;;;5.80;3.58;;;36.40;41.10;;;;;;6111156;23;20363;-88
2021/05/11 12:41:31;;;;;;;8.60;3.17;;;37.80;39.90;;;;;;6091504;23;20015;-89
2021/05/11 12:44:00;;;;;;;4.25;2.17;;;38.30;39.30;;;;;;6043386;23;20014;-89
2021/05/11 12:46:29;;;;;;;5.20;3.03;;;38.60;38.90;;;;;;6090473;23;20017;-88
2021/05/11 12:48:59;;;;;;;7.40;2.95;;;39.20;38.30;;;;;;6090515;23;20025;-87
2021/05/11 12:51:34;;;;;;;13.07;2.50;;;39.50;37.70;;;;;;6072718;23;20042;-86
2021/05/11 12:54:19;;;;;;;6.30;2.88;;;39.80;37.50;;;;;;6075180;23;20029;-88
2021/05/11 12:57:13;;;;;;;6.03;2.70;;;40.20;37.10;;;;;;6116375;23;20018;-88
2021/05/11 12:59:50;;;;;;;5.15;2.58;;;40.60;36.20;;;;;;6096670;23;20013;-88
2021/05/11 13:02:36;;;;;;;8.23;3.00;;;40.40;36.50;;;;;;6089561;23;20022;-89
2021/05/11 13:16:51;;;;;;;5.07;2.67;;;37.70;38.60;;;;;;6008600;23;20094;-87
2021/05/11 13:22:42;;;;;;;6.78;3.03;;;37.40;38.60;;;;;;6025338;23;20045;-89
2021/05/11 13:25:20;;;;;;;7.85;3.42;;;37.20;38.80;;;;;;6084042;23;20050;-86
2021/05/11 13:27:57;;;;;;;6.07;3.50;;;36.00;39.40;;;;;;6059549;23;20029;-87
2021/05/11 13:30:33;;;;;;;8.63;3.75;;;35.00;40.50;;;;;;6084737;23;20086;-88
2021/05/11 13:33:13;;;;;;;5.82;2.90;;;34.20;41.90;;;;;;6063498;23;20026;-87
2021/05/11 13:35:41;;;;;;;10.07;4.05;;;34.20;42.00;;;;;;6062550;23;20014;-86
2021/05/11 13:38:13;;;;;;;8.25;3.03;;;34.10;42.00;;;;;;6058823;23;20038;-86
2021/05/11 13:40:41;;;;;;;10.18;3.70;;;33.80;42.70;;;;;;6059236;23;20046;-87
2021/05/11 13:43:10;;;;;;;13.38;3.50;;;34.10;42.60;;;;;;6061087;23;20050;-87
2021/05/11 13:45:39;;;;;;;6.88;4.30;;;34.70;41.70;;;;;;6037045;23;20046;-88
2021/05/11 13:48:11;;;;;;;8.20;3.35;;;34.50;41.60;;;;;;6093202;23;20018;-87
2021/05/11 13:53:25;;;;;;;10.65;3.92;;;33.30;43.30;;;;;;6061548;23;20099;-87
2021/05/11 13:56:06;;;;;;;13.98;4.20;;;32.80;44.20;;;;;;6064538;23;20018;-88
2021/05/11 14:04:41;;;;;;;7.50;4.03;;;31.90;45.50;;;;;;6008062;23;20072;-85
2021/05/11 14:07:09;;;;;;;7.50;3.30;;;31.20;46.60;;;;;;6066281;23;20018;-87
2021/05/11 14:09:37;;;;;;;11.87;4.07;;;31.20;46.90;;;;;;6071367;23;20021;-87
2021/05/11 14:12:07;;;;;;;9.98;4.05;;;31.30;46.40;;;;;;6087571;23;20260;-86
2021/05/11 14:14:34;;;;;;;13.57;4.07;;;31.70;45.80;;;;;;6110465;23;20306;-85
2021/05/11 14:17:04;;;;;;;4.95;3.10;;;31.80;46.00;;;;;;6062144;23;20025;-87
2021/05/11 14:19:32;;;;;;;6.65;4.20;;;32.70;45.20;;;;;;6092283;23;20014;-88
2021/05/11 14:22:01;;;;;;;8.77;3.55;;;33.20;43.80;;;;;;6070255;23;20018;-86
2021/05/11 14:24:28;;;;;;;7.47;3.30;;;33.00;44.50;;;;;;6086634;23;20063;-86
2021/05/11 14:26:59;;;;;;;6.82;3.50;;;32.40;44.30;;;;;;6086267;23;20046;-87
2021/05/11 14:29:29;;;;;;;9.88;3.70;;;31.30;46.00;;;;;;6084898;23;20046;-87
2021/05/11 14:31:56;;;;;;;9.17;4.30;;;30.90;47.30;;;;;;6083340;23;20033;-84
2021/05/11 14:34:27;;;;;;;9.82;3.65;;;30.60;48.00;;;;;;6106770;23;20466;-83
2021/05/11 14:36:55;;;;;;;7.32;3.38;;;31.10;47.40;;;;;;6058137;23;20042;-85
2021/05/11 14:39:23;;;;;;;5.47;2.80;;;32.10;46.10;;;;;;6057782;23;20046;-86
2021/05/11 14:41:53;;;;;;;9.40;3.63;;;32.90;44.90;;;;;;6106449;23;20046;-85
2021/05/11 14:44:23;;;;;;;7.72;3.25;;;33.40;43.60;;;;;;6110146;23;20039;-85
2021/05/11 14:46:51;;;;;;;9.82;3.00;;;33.30;44.00;;;;;;6058305;23;20227;-86
2021/05/11 14:49:19;;;;;;;9.85;2.97;;;33.70;44.00;;;;;;6059307;23;20051;-87
2021/05/11 14:51:54;;;;;;;9.93;3.38;;;34.40;43.20;;;;;;6081457;23;20047;-87
2021/05/11 14:54:24;;;;;;;11.77;3.90;;;34.10;42.90;;;;;;6058021;23;20050;-87
2021/05/11 14:56:56;;;;;;;10.45;3.08;;;33.50;43.80;;;;;;6058793;23;20042;-85
2021/05/11 14:59:28;;;;;;;14.70;4.82;;;33.20;44.60;;;;;;6109165;23;20011;-84
2021/05/11 15:01:59;;;;;;;13.23;4.18;;;33.00;44.50;;;;;;6086695;23;20022;-84
2021/05/11 15:04:29;;;;;;;13.77;6.30;;;32.60;45.10;;;;;;6061278;23;20043;-85
2021/05/11 15:06:59;;;;;;;10.23;4.72;;;31.50;46.70;;;;;;6060505;23;20022;-85
2021/05/11 15:09:29;;;;;;;10.13;4.10;;;30.80;47.90;;;;;;6084322;23;20014;-83
2021/05/11 15:12:05;;;;;;;13.65;4.70;;;30.30;49.00;;;;;;6062326;23;20010;-85
2021/05/11 15:14:35;;;;;;;10.15;3.90;;;30.00;49.70;;;;;;6076006;23;20039;-83
2021/05/11 15:17:58;;;;;;;14.18;5.72;;;29.60;50.30;;;;;;6059892;23;20064;-84
2021/05/11 15:20:02;;;;;;;9.77;4.25;;;29.30;50.70;;;;;;6083507;23;20065;-84
2021/05/11 15:22:37;;;;;;;11.10;4.28;;;29.40;51.20;;;;;;6060474;23;20042;-86
2021/05/11 15:25:10;;;;;;;12.68;4.82;;;29.60;51.00;;;;;;6084436;23;20054;-86
2021/05/11 15:27:40;;;;;;;11.48;4.75;;;29.70;50.40;;;;;;6085212;23;20046;-87
2021/05/11 15:30:15;;;;;;;9.93;4.60;;;29.10;51.40;;;;;;6067313;23;20014;-87
2021/05/11 15:32:49;;;;;;;7.95;4.35;;;28.60;52.30;;;;;;6070899;23;20026;-87
2021/05/11 15:35:21;;;;;;;10.20;5.00;;;28.00;53.70;;;;;;6066297;23;20018;-87
2021/05/11 15:37:56;;;;;;;7.55;4.25;;;27.50;55.00;;;;;;6088319;23;20017;-87
2021/05/11 15:40:31;;;;;;;10.10;4.80;;;27.20;55.70;;;;;;6063684;23;20010;-87
2021/05/11 15:43:00;;;;;;;8.70;5.05;;;26.80;56.90;;;;;;6062994;23;20357;-87
2021/05/11 15:45:30;;;;;;;12.35;5.38;;;26.40;57.80;;;;;;6086782;23;20042;-88
2021/05/11 15:48:01;;;;;;;11.90;5.50;;;26.00;59.00;;;;;;6086134;23;20046;-88
2021/05/11 15:50:36;;;;;;;16.25;5.65;;;25.70;60.50;;;;;;6083237;23;20243;-88
2021/05/11 15:53:12;;;;;;;11.32;5.32;;;25.30;61.30;;;;;;6087118;23;20025;-88
2021/05/11 15:55:42;;;;;;;12.43;5.40;;;25.00;62.30;;;;;;6061753;23;20340;-87
2021/05/11 15:58:18;;;;;;;11.98;5.07;;;24.80;63.20;;;;;;6087220;23;20033;-87
2021/05/11 16:00:50;;;;;;;11.02;4.93;;;24.60;63.80;;;;;;6063307;23;20071;-88
2021/05/11 16:03:20;;;;;;;11.63;4.85;;;24.50;64.50;;;;;;6062267;23;20039;-88
2021/05/11 16:05:50;;;;;;;12.23;6.33;;;24.30;65.30;;;;;;6061934;23;20029;-88
2021/05/11 16:08:26;;;;;;;15.07;5.63;;;24.20;65.80;;;;;;6086767;23;20330;-87
2021/05/11 16:10:55;;;;;;;18.98;5.60;;;24.10;66.90;;;;;;6085269;23;20018;-87
2021/05/11 16:13:30;;;;;;;13.68;6.60;;;23.90;67.70;;;;;;6070024;23;20062;-85
2021/05/11 16:16:02;;;;;;;15.48;5.30;;;23.80;68.50;;;;;;6097679;23;20425;-87
2021/05/11 16:18:31;;;;;;;10.82;6.00;;;23.60;69.50;;;;;;6094612;23;20360;-86
2021/05/11 16:21:00;;;;;;;15.75;5.28;;;23.40;70.70;;;;;;6062897;23;20267;-84
2021/05/11 16:23:29;;;;;;;15.10;5.50;;;23.20;72.50;;;;;;6086867;23;20345;-84
2021/05/11 16:25:56;;;;;;;;;;;23.10;73.80;;;;;;6070273;23;20025;-86
2021/05/11 16:28:27;;;;;;;12.82;6.22;;;22.90;75.80;;;;;;6118218;23;19925;-84
2021/05/11 16:30:59;;;;;;;14.25;6.60;;;22.60;78.90;;;;;;6095441;23;20010;-85
2021/05/11 16:33:28;;;;;;;12.00;6.50;;;22.40;82.40;;;;;;6065993;23;20029;-86
2021/05/11 16:35:56;;;;;;;14.20;6.88;;;22.40;83.90;;;;;;6063891;23;20332;-84
2021/05/11 16:38:23;;;;;;;13.17;6.83;;;22.40;85.70;;;;;;6059491;23;20050;-85
2021/05/11 16:40:50;;;;;;;14.23;6.75;;;22.30;87.60;;;;;;6037513;23;20026;-84
2021/05/11 16:43:22;;;;;;;10.13;6.63;;;22.30;88.10;;;;;;6060537;23;20043;-85
2021/05/11 16:45:50;;;;;;;11.38;6.82;;;22.20;89.40;;;;;;6062564;23;20093;-83
2021/05/11 16:48:26;;;;;;;10.38;7.25;;;21.90;90.80;;;;;;6088028;23;20025;-87
2021/05/11 16:50:58;;;;;;;14.02;7.28;;;21.50;92.90;;;;;;6067889;23;20191;-85
2021/05/11 16:53:31;;;;;;;21.70;7.15;;;21.30;95.00;;;;;;6059834;23;20050;-85
2021/05/11 16:56:00;;;;;;;22.45;6.80;;;21.20;96.60;;;;;;6085002;23;20010;-84
2021/05/11 16:58:27;;;;;;;11.05;6.05;;;21.20;98.60;;;;;;6110461;23;20042;-87
2021/05/11 17:00:55;;;;;;;12.35;6.15;;;21.30;99.90;;;;;;6082276;23;20046;-85
2021/05/11 17:03:25;;;;;;;10.15;6.30;;;21.30;99.90;;;;;;6059435;23;20017;-85
2021/05/11 17:05:55;;;;;;;12.25;6.35;;;21.20;99.90;;;;;;6082284;23;20062;-85
2021/05/11 17:08:23;;;;;;;14.50;6.18;;;20.70;99.90;;;;;;6107562;23;20050;-86
2021/05/11 17:22:35;;;;;;;11.02;7.45;;;20.20;99.90;;;;;;6096816;23;20018;-86
2021/05/11 17:25:10;;;;;;;63.80;12.80;;;19.70;99.90;;;;;;6120322;23;20038;-86
2021/05/11 17:27:38;;;;;;;35.65;14.70;;;18.60;99.90;;;;;;6125022;23;20018;-86
2021/05/11 17:30:08;;;;;;;26.53;16.17;;;18.10;99.90;;;;;;6136988;23;20021;-85
2021/05/11 17:32:36;;;;;;;27.67;16.67;;;18.00;99.90;;;;;;6087547;23;20042;-86
2021/05/11 17:35:10;;;;;;;27.73;17.60;;;17.70;99.90;;;;;;6096957;23;20010;-88
2021/05/11 17:37:39;;;;;;;30.63;17.60;;;17.60;99.90;;;;;;6089533;23;20020;-88
2021/05/11 17:40:12;;;;;;;26.67;17.45;;;17.30;99.90;;;;;;6137035;23;20046;-89
2021/05/11 17:42:45;;;;;;;31.25;18.00;;;17.30;99.90;;;;;;6117749;23;20009;-88
2021/05/11 17:45:15;;;;;;;31.98;19.27;;;17.30;99.90;;;;;;6072064;23;20017;-88
2021/05/11 17:47:51;;;;;;;30.60;18.67;;;17.20;99.90;;;;;;6118707;23;20009;-88
2021/05/11 17:50:21;;;;;;;26.98;18.58;;;17.20;99.90;;;;;;6110545;23;20045;-88
2021/05/11 17:52:49;;;;;;;29.00;18.80;;;17.10;99.90;;;;;;6087161;23;20076;-89
2021/05/11 17:55:17;;;;;;;32.25;20.25;;;17.00;99.90;;;;;;6112751;23;20047;-88
2021/05/11 17:57:45;;;;;;;34.37;19.93;;;17.00;99.90;;;;;;6111955;23;20050;-87
2021/05/11 18:00:13;;;;;;;32.58;21.17;;;17.00;99.90;;;;;;6087555;23;20289;-88
2021/05/11 18:02:45;;;;;;;34.17;21.77;;;17.10;99.90;;;;;;6111859;23;20105;-89
2021/05/11 18:05:17;;;;;;;30.15;20.83;;;17.00;99.90;;;;;;6112105;23;20045;-87
2021/05/11 18:07:57;;;;;;;29.67;20.17;;;17.00;99.90;;;;;;6115107;23;20061;-89
2021/05/11 18:10:25;;;;;;;28.25;19.67;;;17.00;99.90;;;;;;6115782;23;20019;-87
2021/05/11 18:13:00;;;;;;;32.05;20.20;;;16.90;99.90;;;;;;6088963;23;20047;-88
2021/05/11 18:15:31;;;;;;;29.73;19.35;;;17.00;99.90;;;;;;6109748;23;20034;-88
2021/05/11 18:18:01;;;;;;;31.05;20.45;;;16.80;99.90;;;;;;6110955;23;20049;-90
2021/05/11 18:20:31;;;;;;;31.65;20.00;;;16.80;99.90;;;;;;6082048;23;20045;-87
2021/05/11 18:23:01;;;;;;;34.78;20.90;;;16.90;99.90;;;;;;6110656;23;20366;-87
2021/05/11 18:25:29;;;;;;;29.92;20.92;;;16.90;99.90;;;;;;6080130;23;20054;-87
2021/05/11 18:27:59;;;;;;;33.50;21.33;;;17.00;99.90;;;;;;6083153;23;20047;-86
2021/05/11 18:30:26;;;;;;;31.60;20.10;;;16.80;99.90;;;;;;6082096;23;20051;-89
2021/05/11 18:32:57;;;;;;;35.45;21.52;;;16.70;99.90;;;;;;6082486;23;20042;-89
2021/05/11 18:35:28;;;;;;;35.65;21.25;;;16.70;99.90;;;;;;6065877;23;20014;-87
2021/05/11 18:37:59;;;;;;;37.17;22.00;;;16.70;99.90;;;;;;6084244;23;20042;-87
2021/05/11 18:40:32;;;;;;;41.55;22.50;;;16.80;99.90;;;;;;6083544;23;20054;-88
2021/05/11 18:43:02;;;;;;;42.67;23.33;;;16.50;99.90;;;;;;6061523;23;20042;-88
2021/05/11 18:45:32;;;;;;;37.95;23.33;;;16.30;99.90;;;;;;6082142;23;20042;-87
2021/05/11 18:48:02;;;;;;;42.65;23.00;;;16.30;99.90;;;;;;6083285;23;20046;-88
2021/05/11 18:50:37;;;;;;;39.10;24.40;;;16.40;99.90;;;;;;6083406;23;20050;-87
2021/05/11 18:53:06;;;;;;;41.75;25.23;;;16.40;99.90;;;;;;6083619;23;20075;-88
2021/05/11 18:55:38;;;;;;;40.83;24.65;;;16.40;99.90;;;;;;6061532;23;20029;-87
2021/05/11 18:58:08;;;;;;;42.72;25.08;;;16.50;99.90;;;;;;6113867;23;20010;-88
2021/05/11 19:00:45;;;;;;;34.97;22.90;;;16.40;99.90;;;;;;6116537;23;20022;-87
2021/05/11 19:03:13;;;;;;;31.83;22.60;;;16.30;99.90;;;;;;6094537;23;20260;-89
2021/05/11 19:05:41;;;;;;;40.75;24.10;;;16.20;99.90;;;;;;6066411;23;20022;-88
2021/05/11 19:08:18;;;;;;;33.58;21.50;;;16.10;99.90;;;;;;6108267;23;20054;-88
2021/05/11 19:10:47;;;;;;;35.15;21.75;;;16.10;99.90;;;;;;6106966;23;20104;-87
2021/05/11 19:13:18;;;;;;;33.85;22.08;;;15.90;99.90;;;;;;6082753;23;20042;-87
2021/05/11 19:15:46;;;;;;;33.95;21.40;;;15.90;99.90;;;;;;6082480;23;20054;-88
2021/05/11 19:18:18;;;;;;;33.25;21.40;;;15.80;99.90;;;;;;6082660;23;20042;-87
2021/05/11 19:20:46;;;;;;;35.67;21.48;;;15.80;99.90;;;;;;6085122;23;20307;-88
2021/05/11 19:23:15;;;;;;;34.47;21.10;;;15.80;99.90;;;;;;6135578;23;20050;-88
2021/05/11 19:25:43;;;;;;;33.50;21.02;;;15.70;99.90;;;;;;6114486;23;20042;-89
2021/05/11 19:28:13;;;;;;;39.85;21.92;;;15.70;99.90;;;;;;6088518;23;20345;-87
2021/05/11 19:30:40;;;;;;;35.55;22.20;;;15.60;99.90;;;;;;6111690;23;20050;-89
2021/05/11 19:33:08;;;;;;;32.22;22.38;;;15.70;99.90;;;;;;6088463;23;20050;-89
2021/05/11 19:35:41;;;;;;;33.85;21.15;;;15.70;99.90;;;;;;6113197;23;20012;-89
2021/05/11 19:38:10;;;;;;;26.13;20.55;;;15.60;99.90;;;;;;6114643;23;20046;-89
2021/05/11 19:40:38;;;;;;;31.45;20.65;;;15.50;99.90;;;;;;6096370;23;20038;-87
2021/05/11 19:43:08;;;;;;;34.38;21.30;;;15.50;99.90;;;;;;6126439;23;20002;-90
2021/05/11 19:45:39;;;;;;;32.22;19.30;;;15.40;99.90;;;;;;6117158;23;20045;-88
2021/05/11 19:48:15;;;;;;;32.20;21.08;;;15.30;99.90;;;;;;6096799;23;20010;-90
2021/05/11 19:50:46;;;;;;;30.40;19.33;;;15.20;99.90;;;;;;6139593;23;20020;-91
2021/05/11 19:53:21;;;;;;;29.30;19.65;;;15.20;99.90;;;;;;6110645;23;20050;-89
2021/05/11 19:55:54;;;;;;;41.38;22.25;;;15.30;99.90;;;;;;6110589;23;20053;-88
2021/05/11 19:58:26;;;;;;;26.23;18.30;;;15.30;99.90;;;;;;6111067;23;20045;-90
2021/05/11 20:00:59;;;;;;;30.00;19.75;;;15.20;99.90;;;;;;6087570;23;20046;-89
2021/05/11 20:03:30;;;;;;;33.58;20.33;;;15.20;99.90;;;;;;6112428;23;20034;-88
2021/05/11 20:06:03;;;;;;;29.10;19.70;;;15.10;99.90;;;;;;6117778;23;20325;-90
2021/05/11 20:08:37;;;;;;;31.58;20.17;;;15.10;99.90;;;;;;6113819;23;20034;-94
2021/05/11 20:11:09;;;;;;;29.92;22.08;;;15.00;99.90;;;;;;6140712;23;20013;-92
2021/05/11 20:13:40;;;;;;;33.53;22.03;;;15.00;99.90;;;;;;6149043;23;20010;-93
2021/05/11 20:16:18;;;;;;;33.13;21.85;;;15.00;99.90;;;;;;6124681;23;20024;-94
2021/05/11 20:18:50;;;;;;;30.20;20.85;;;15.00;99.90;;;;;;6097969;23;20020;-91
2021/05/11 20:21:18;;;;;;;35.70;22.23;;;14.90;99.90;;;;;;6119011;23;20250;-92
2021/05/11 20:23:46;;;;;;;38.20;23.27;;;15.00;99.90;;;;;;6100913;23;19998;-93
2021/05/11 20:26:18;;;;;;;34.00;23.05;;;15.00;99.90;;;;;;6128124;23;20014;-92
2021/05/11 20:28:53;;;;;;;33.03;23.98;;;15.00;99.90;;;;;;6121049;23;20009;-95
2021/05/11 20:31:24;;;;;;;41.97;25.23;;;15.00;99.90;;;;;;6118329;23;20010;-91
2021/05/11 20:34:23;;;;;;;39.75;24.88;;;15.00;99.90;;;;;;6120208;23;20040;-94
2021/05/11 20:36:53;;;;;;;42.97;27.80;;;14.90;99.90;;;;;;6115361;23;20046;-93
2021/05/11 20:39:21;;;;;;;37.70;23.75;;;14.90;99.90;;;;;;6120811;23;20265;-94
2021/05/11 20:41:52;;;;;;;38.08;25.67;;;14.90;99.90;;;;;;6128476;23;20014;-95
2021/05/11 20:44:20;;;;;;;37.42;25.23;;;14.90;99.90;;;;;;6097067;23;20061;-93
2021/05/11 20:47:14;;;;;;;40.92;24.23;;;14.90;99.90;;;;;;6119772;23;20018;-95
2021/05/11 20:49:43;;;;;;;40.95;26.08;;;14.80;99.90;;;;;;6115596;23;20025;-95
2021/05/11 20:52:11;;;;;;;38.95;24.60;;;14.90;99.90;;;;;;6139793;23;20017;-92
2021/05/11 20:54:38;;;;;;;40.67;24.05;;;14.80;99.90;;;;;;6139560;23;20013;-91
2021/05/11 20:57:07;;;;;;;;;;;14.80;99.90;;;;;;6095320;23;20010;-91
2021/05/11 20:59:34;;;;;;;33.70;23.35;;;14.80;99.90;;;;;;6094662;23;19920;-92
2021/05/11 21:02:02;;;;;;;35.80;24.60;;;14.80;99.90;;;;;;6119853;23;20017;-92
2021/05/11 21:04:30;;;;;;;35.28;24.30;;;14.70;99.90;;;;;;6095125;23;20021;-93
2021/05/11 21:06:57;;;;;;;37.60;25.27;;;14.60;99.90;;;;;;6143170;23;20045;-90
2021/05/11 21:09:25;;;;;;;37.03;25.23;;;14.60;99.90;;;;;;6141372;23;20006;-92
2021/05/11 21:11:52;;;;;;;35.05;24.30;;;14.70;99.90;;;;;;6139835;23;20006;-92
2021/05/11 21:14:20;;;;;;;34.35;24.02;;;14.70;99.90;;;;;;6092136;23;20014;-91
2021/05/11 21:16:48;;;;;;;33.08;21.10;;;14.60;99.90;;;;;;6096631;23;20013;-90
2021/05/11 21:19:16;;;;;;;35.58;22.45;;;14.70;99.90;;;;;;6116986;23;20041;-90
2021/05/11 21:21:44;;;;;;;30.58;21.13;;;14.60;99.90;;;;;;6096219;23;20018;-90
2021/05/11 21:24:12;;;;;;;31.20;20.98;;;14.60;99.90;;;;;;6115571;23;20042;-91
2021/05/11 21:26:39;;;;;;;33.78;19.88;;;14.50;99.90;;;;;;6118753;23;20006;-90
2021/05/11 21:29:06;;;;;;;32.08;20.40;;;14.60;99.90;;;;;;6097896;23;20017;-92
2021/05/11 21:31:36;;;;;;;29.80;19.25;;;14.60;99.90;;;;;;6091450;23;20028;-91
2021/05/11 21:34:08;;;;;;;30.30;19.00;;;14.60;99.90;;;;;;6138953;23;20013;-92
2021/05/11 21:36:35;;;;;;;29.98;19.17;;;14.60;99.90;;;;;;6113737;23;20041;-91
2021/05/11 21:39:04;;;;;;;29.02;18.85;;;14.60;99.90;;;;;;6064684;23;20050;-91
2021/05/11 21:41:32;;;;;;;29.88;19.73;;;14.60;99.90;;;;;;6137381;23;20045;-91
2021/05/11 21:44:02;;;;;;;29.23;19.77;;;14.60;99.90;;;;;;6113876;23;20038;-91
2021/05/11 21:46:29;;;;;;;28.05;19.52;;;14.60;99.90;;;;;;6148000;23;20017;-91
2021/05/11 21:48:56;;;;;;;32.25;19.48;;;14.50;99.90;;;;;;6114694;23;20006;-92
2021/05/11 21:51:26;;;;;;;31.77;18.73;;;14.50;99.90;;;;;;6044422;23;20231;-91
2021/05/11 21:53:53;;;;;;;29.27;19.02;;;14.50;99.90;;;;;;6115203;23;20330;-91
2021/05/11 21:56:24;;;;;;;29.40;18.33;;;14.60;99.90;;;;;;6119275;23;20010;-91
2021/05/11 21:58:51;;;;;;;25.52;18.17;;;14.50;99.90;;;;;;6118217;23;20017;-91
2021/05/11 22:01:21;;;;;;;30.15;18.58;;;14.40;99.90;;;;;;6144352;23;20015;-92
2021/05/11 22:03:52;;;;;;;35.10;18.75;;;14.60;99.90;;;;;;6090966;23;20046;-91
2021/05/11 22:06:20;;;;;;;26.58;17.55;;;14.50;99.90;;;;;;6112727;23;20044;-91
2021/05/11 22:08:48;;;;;;;29.10;17.53;;;14.50;99.90;;;;;;6088100;23;20029;-91
2021/05/11 22:11:19;;;;;;;25.70;17.88;;;14.40;99.90;;;;;;6088170;23;20297;-90
2021/05/11 22:13:48;;;;;;;24.60;16.02;;;14.50;99.90;;;;;;6087705;23;20042;-91
2021/05/11 22:16:19;;;;;;;23.65;15.60;;;14.50;99.90;;;;;;6113359;23;20033;-91
2021/05/11 22:18:47;;;;;;;25.65;15.23;;;14.60;99.90;;;;;;6098192;23;20009;-91
2021/05/11 22:21:16;;;;;;;27.10;16.42;;;14.60;99.90;;;;;;6116517;23;20013;-91
2021/05/11 22:23:55;;;;;;;21.15;13.57;;;14.70;99.90;;;;;;6116234;23;20037;-91
2021/05/11 22:26:24;;;;;;;20.83;13.60;;;14.70;99.90;;;;;;6137854;23;20083;-92
2021/05/11 22:28:52;;;;;;;21.33;13.25;;;14.90;99.90;;;;;;6137061;23;20042;-91
2021/05/11 22:31:20;;;;;;;20.33;13.02;;;15.00;99.90;;;;;;6117254;23;20048;-91
2021/05/11 22:33:47;;;;;;;19.52;12.27;;;14.80;99.90;;;;;;6072813;23;20014;-91
2021/05/11 22:36:14;;;;;;;23.90;14.32;;;14.70;99.90;;;;;;6117049;23;20014;-92
2021/05/11 22:38:43;;;;;;;23.52;12.65;;;14.50;99.90;;;;;;6119125;23;20017;-91
2021/05/11 22:41:14;;;;;;;23.05;13.80;;;14.40;99.90;;;;;;6092545;23;20005;-90
2021/05/11 22:43:46;;;;;;;19.88;13.07;;;14.40;99.90;;;;;;6112621;23;20063;-91
2021/05/11 22:46:14;;;;;;;;;;;14.40;99.90;;;;;;6113940;23;20444;-91
2021/05/11 22:48:44;;;;;;;18.63;12.38;;;14.40;99.90;;;;;;6112439;23;19953;-91
2021/05/11 22:51:13;;;;;;;17.23;12.73;;;14.40;99.90;;;;;;6097871;23;20010;-91
2021/05/11 22:53:41;;;;;;;22.52;13.40;;;14.40;99.90;;;;;;6118224;23;20021;-91
2021/05/11 22:56:08;;;;;;;16.38;11.65;;;14.40;99.90;;;;;;6113737;23;20049;-91
2021/05/11 22:58:35;;;;;;;16.98;11.52;;;14.50;99.90;;;;;;6088334;23;20053;-92
2021/05/11 23:01:02;;;;;;;16.73;11.55;;;14.90;99.90;;;;;;6137843;23;20038;-91
2021/05/11 23:03:30;;;;;;;16.65;10.60;;;14.90;99.90;;;;;;6091044;23;20345;-93
2021/05/11 23:06:02;;;;;;;21.80;12.50;;;15.10;99.90;;;;;;6114805;23;20309;-92
2021/05/11 23:08:32;;;;;;;18.70;11.60;;;15.10;99.90;;;;;;6137446;23;20009;-94
2021/05/11 23:10:59;;;;;;;18.40;10.77;;;14.90;99.90;;;;;;6112432;23;20050;-93
2021/05/11 23:13:27;;;;;;;18.83;11.80;;;15.10;99.90;;;;;;6112735;23;20050;-92
2021/05/11 23:15:57;;;;;;;16.98;12.43;;;15.10;99.90;;;;;;6089073;23;20035;-93
2021/05/11 23:18:28;;;;;;;18.88;11.63;;;15.00;99.90;;;;;;6089737;23;20013;-94
2021/05/11 23:20:56;;;;;;;17.25;11.02;;;15.00;99.90;;;;;;6113515;23;20051;-95
2021/05/11 23:23:23;;;;;;;22.05;12.13;;;14.80;99.90;;;;;;6090924;23;20053;-95
2021/05/11 23:25:51;;;;;;;23.08;13.55;;;14.80;99.90;;;;;;6114080;23;20041;-94
2021/05/11 23:28:18;;;;;;;21.08;13.73;;;14.60;99.90;;;;;;6113166;23;20337;-94
2021/05/11 23:30:47;;;;;;;22.43;13.87;;;14.40;99.90;;;;;;6114726;23;20013;-95
2021/05/11 23:33:17;;;;;;;21.27;13.52;;;14.40;99.90;;;;;;6093782;23;20349;-91
2021/05/11 23:35:45;;;;;;;19.58;12.32;;;14.40;99.90;;;;;;6120794;23;20017;-91
2021/05/11 23:38:20;;;;;;;24.35;14.75;;;14.40;99.90;;;;;;6125684;23;20017;-89
2021/05/11 23:40:47;;;;;;;24.33;13.63;;;14.30;99.90;;;;;;6128687;23;20013;-90
2021/05/11 23:43:14;;;;;;;22.33;13.63;;;14.20;99.90;;;;;;6107451;23;20010;-90
2021/05/11 23:45:42;;;;;;;21.13;13.55;;;14.20;99.90;;;;;;6107323;23;20009;-90
2021/05/11 23:48:10;;;;;;;22.13;12.90;;;14.20;99.90;;;;;;6156848;23;20024;-91
2021/05/11 23:50:38;;;;;;;23.10;13.27;;;14.30;99.90;;;;;;6154426;23;20021;-91
2021/05/11 23:53:06;;;;;;;22.88;13.85;;;14.30;99.90;;;;;;6121240;23;20010;-92
2021/05/11 23:55:34;;;;;;;21.17;13.93;;;14.20;99.90;;;;;;6150164;23;20010;-91
2021/05/11 23:58:01;;;;;;;20.95;12.65;;;14.30;99.90;;;;;;6122201;23;20013;-92
